Time;durP1;ratioP1;P1;durP2;ratioP2;P2;SDS_P1;SDS_P2;PMS_P1;PMS_P2;Temp;Humidity;BMP_temperature;BMP_pressure;BME280_temperature;BME280_humidity;BME280_pressure;Samples;Min_cycle;Max_cycle;Signal;HPM_P1;HPM_P2
2022/04/22 00:00:25;;;;;;;12.67;10.40;;;;;;;13.74;65.08;94374.66;5084722;28;20182;-75
2022/04/22 00:02:51;;;;;;;11.83;10.63;;;;;;;13.94;64.14;94381.50;5084027;28;20459;-74
2022/04/22 00:05:17;;;;;;;10.83;9.73;;;;;;;14.15;63.60;94377.59;5085350;28;20648;-75
2022/04/22 00:07:43;;;;;;;11.83;9.07;;;;;;;13.69;63.93;94371.09;5074019;28;20234;-74
2022/04/22 00:10:10;;;;;;;12.90;11.30;;;;;;;13.77;64.42;94373.41;5064999;28;20174;-74
2022/04/22 00:12:36;;;;;;;13.70;10.50;;;;;;;14.10;64.54;94367.75;5081128;28;20547;-74
2022/04/22 00:15:03;;;;;;;11.93;10.93;;;;;;;13.91;65.55;94366.97;5056994;28;20441;-74
2022/04/22 00:17:28;;;;;;;12.20;11.00;;;;;;;14.05;64.70;94362.34;5072748;28;20178;-74
2022/04/22 00:19:54;;;;;;;17.50;12.77;;;;;;;14.03;64.24;94359.94;5085122;28;20927;-74
2022/04/22 00:22:19;;;;;;;13.40;11.17;;;;;;;13.88;65.47;94345.56;5088893;28;20280;-74
2022/04/22 00:24:45;;;;;;;10.93;9.93;;;;;;;13.71;65.89;94335.66;5087203;28;20264;-74
2022/04/22 00:27:10;;;;;;;11.47;10.27;;;;;;;13.94;65.13;94334.16;5082389;28;20167;-74
2022/04/22 00:29:36;;;;;;;11.97;10.77;;;;;;;13.81;65.13;94327.22;5070624;28;20178;-74
2022/04/22 00:32:01;;;;;;;12.10;10.80;;;;;;;13.65;65.72;94326.81;5085880;28;20229;-74
2022/04/22 00:34:27;;;;;;;12.30;11.00;;;;;;;13.88;64.93;94332.41;5088296;28;20181;-74
2022/04/22 00:36:54;;;;;;;12.50;11.20;;;;;;;13.82;65.95;94345.44;5087085;28;20174;-74
2022/04/22 00:39:19;;;;;;;11.53;10.47;;;;;;;13.81;65.70;94343.00;5063522;28;20175;-75
2022/04/22 00:41:45;;;;;;;11.73;10.53;;;;;;;13.56;66.16;94335.22;5073657;28;20450;-75
2022/04/22 00:44:11;;;;;;;11.63;10.50;;;;;;;13.71;66.35;94337.47;5082260;28;20203;-75
2022/04/22 00:46:36;;;;;;;12.00;10.80;;;;;;;13.83;65.94;94339.16;5077594;28;20181;-75
2022/04/22 00:49:02;;;;;;;11.40;10.20;;;;;;;13.86;66.52;94340.53;5088489;28;20178;-75
2022/04/22 00:51:28;;;;;;;12.00;10.80;;;;;;;14.11;65.25;94332.50;5067378;28;20178;-75
2022/04/22 00:53:54;;;;;;;12.73;11.37;;;;;;;13.92;66.13;94328.31;5073167;28;20232;-75
2022/04/22 00:56:20;;;;;;;12.10;10.90;;;;;;;14.16;65.08;94324.75;5088209;28;20279;-75
2022/04/22 00:58:48;;;;;;;12.27;11.10;;;;;;;14.35;64.34;94316.78;5068752;28;20440;-75
2022/04/22 01:01:14;;;;;;;11.63;10.43;;;;;;;13.99;65.01;94319.31;5081331;28;20471;-75
2022/04/22 01:09:47;;;;;;;15.07;10.60;;;;;;;13.96;64.02;94292.63;5077141;28;20456;-75
2022/04/22 01:12:01;;;;;;;13.80;11.40;;;;;;;14.02;65.12;94302.28;5087645;28;20563;-75
2022/04/22 01:14:27;;;;;;;11.33;9.90;;;;;;;13.98;64.73;94291.41;5087957;28;20424;-74
2022/04/22 01:16:52;;;;;;;11.77;10.67;;;;;;;13.96;65.10;94285.56;5083907;28;20435;-75
2022/04/22 01:19:18;;;;;;;12.97;11.00;;;;;;;13.62;65.90;94269.44;5062245;28;20455;-75
2022/04/22 01:21:44;;;;;;;11.17;10.17;;;;;;;13.59;66.16;94263.81;5082937;28;20186;-74
2022/04/22 01:24:09;;;;;;;12.20;10.93;;;;;;;13.60;66.45;94258.34;5080877;28;20522;-75
2022/04/22 01:26:35;;;;;;;11.90;10.60;;;;;;;13.69;66.62;94256.19;5080939;28;20302;-74
2022/04/22 01:29:01;;;;;;;15.73;11.17;;;;;;;13.48;66.49;94250.38;5092148;28;20703;-74
2022/04/22 01:31:27;;;;;;;12.67;10.50;;;;;;;13.57;66.37;94227.22;5097392;28;20185;-75
2022/04/22 01:33:52;;;;;;;14.10;12.33;;;;;;;13.60;66.02;94226.78;5079537;28;20489;-74
2022/04/22 01:36:18;;;;;;;14.87;13.20;;;;;;;13.56;67.29;94225.59;5087738;28;20176;-75
2022/04/22 01:38:43;;;;;;;12.03;10.97;;;;;;;13.27;67.96;94225.34;5084278;28;20177;-75
2022/04/22 01:41:09;;;;;;;12.73;11.57;;;;;;;12.78;69.88;94226.31;5087516;28;20213;-75
2022/04/22 01:43:35;;;;;;;13.73;12.37;;;;;;;13.44;67.12;94230.81;5087568;28;20197;-74
2022/04/22 01:46:00;;;;;;;13.67;11.87;;;;;;;13.51;66.41;94235.19;5079379;28;20436;-75
2022/04/22 01:48:26;;;;;;;18.03;15.00;;;;;;;13.41;67.23;94233.91;5084770;28;20173;-75
2022/04/22 01:50:51;;;;;;;16.90;15.10;;;;;;;13.45;67.09;94236.91;5087316;28;20606;-75
2022/04/22 01:53:17;;;;;;;17.13;14.03;;;;;;;13.34;67.80;94248.97;5086917;28;20192;-75
2022/04/22 01:55:43;;;;;;;17.10;12.30;;;;;;;13.36;67.21;94252.16;5078961;28;20178;-75
2022/04/22 01:58:09;;;;;;;13.43;11.93;;;;;;;13.32;67.24;94250.19;5086742;28;20483;-74
2022/04/22 02:00:34;;;;;;;13.00;11.80;;;;;;;12.98;68.94;94257.63;5073298;28;20241;-75
2022/04/22 02:03:00;;;;;;;12.10;10.97;;;;;;;12.34;71.25;94270.13;5058048;28;20202;-75
2022/04/22 02:05:26;;;;;;;13.10;11.80;;;;;;;12.72;69.86;94282.34;5072218;28;20231;-75
2022/04/22 02:07:51;;;;;;;12.77;11.67;;;;;;;12.58;70.74;94281.66;5086784;28;20420;-75
2022/04/22 02:10:17;;;;;;;12.10;8.23;;;;;;;12.48;70.59;94287.38;5076079;28;20200;-74
2022/04/22 02:12:43;;;;;;;11.07;10.00;;;;;;;12.88;69.28;94295.72;5069968;28;20174;-75
2022/04/22 02:15:08;;;;;;;16.20;10.80;;;;;;;13.10;68.12;94305.78;5051753;28;20189;-75
2022/04/22 02:17:34;;;;;;;11.43;10.23;;;;;;;13.20;67.85;94303.47;5076381;28;20179;-75
2022/04/22 02:20:01;;;;;;;11.37;10.37;;;;;;;13.24;67.63;94301.19;5063138;28;20202;-75
2022/04/22 02:22:26;;;;;;;10.73;9.70;;;;;;;13.16;68.46;94289.13;5068391;28;20206;-75
2022/04/22 02:24:52;;;;;;;12.73;11.43;;;;;;;13.17;67.54;94297.84;5066313;28;20463;-75
2022/04/22 02:30:02;;;;;;;13.73;12.53;;;;;;;13.54;65.63;94267.09;5082270;28;20682;-74
2022/04/22 02:32:28;;;;;;;13.97;12.50;;;;;;;13.56;66.29;94259.00;5086090;28;20443;-75
2022/04/22 02:34:53;;;;;;;12.23;11.03;;;;;;;13.80;65.04;94260.69;5086059;28;20432;-75
2022/04/22 02:37:18;;;;;;;13.70;12.30;;;;;;;13.52;65.92;94252.56;5067945;28;20174;-75
2022/04/22 02:39:44;;;;;;;15.57;12.30;;;;;;;13.64;65.50;94253.44;5086030;28;20181;-75
2022/04/22 02:47:37;;;;;;;13.03;11.03;;;;;;;13.46;66.66;94262.16;5080229;28;20945;-75
2022/04/22 02:50:04;;;;;;;12.93;11.73;;;;;;;13.12;68.90;94264.34;5086498;28;20428;-74
2022/04/22 02:52:29;;;;;;;13.80;12.43;;;;;;;13.16;68.17;94273.38;5085662;28;20176;-74
2022/04/22 02:54:55;;;;;;;13.70;12.10;;;;;;;13.12;68.82;94264.34;5068042;28;20889;-75
2022/04/22 02:57:21;;;;;;;16.53;13.37;;;;;;;13.34;68.13;94262.09;5086059;28;20178;-75
2022/04/22 02:59:47;;;;;;;14.70;12.50;;;;;;;13.33;67.70;94263.09;5068264;28;20180;-74
2022/04/22 03:02:12;;;;;;;13.30;11.90;;;;;;;13.05;68.53;94266.22;5079181;28;20208;-75
2022/04/22 03:04:38;;;;;;;14.43;13.03;;;;;;;13.18;68.48;94246.88;5084339;28;20442;-75
2022/04/22 03:07:04;;;;;;;14.57;13.17;;;;;;;13.56;66.88;94246.63;5090105;28;20178;-75
2022/04/22 03:09:30;;;;;;;14.40;12.70;;;;;;;13.03;68.74;94258.59;5101413;28;20181;-74
2022/04/22 03:11:55;;;;;;;13.27;11.87;;;;;;;13.32;67.93;94256.25;5085851;28;20192;-75
2022/04/22 03:14:21;;;;;;;14.63;13.00;;;;;;;13.28;68.41;94257.69;5085245;28;20174;-74
2022/04/22 03:16:47;;;;;;;14.97;11.20;;;;;;;13.34;67.38;94254.22;5067453;28;20245;-74
2022/04/22 03:19:12;;;;;;;13.63;12.27;;;;;;;13.31;67.73;94259.91;5067448;28;20178;-75
2022/04/22 03:21:38;;;;;;;13.87;12.50;;;;;;;13.50;67.47;94273.03;5067424;28;20191;-75
2022/04/22 03:24:04;;;;;;;15.20;12.50;;;;;;;13.45;67.61;94271.06;5085705;28;20197;-75
2022/04/22 03:26:29;;;;;;;13.73;12.40;;;;;;;13.41;67.40;94275.16;5085321;28;20178;-75
2022/04/22 03:28:57;;;;;;;14.73;12.27;;;;;;;13.46;67.51;94283.19;5085693;28;20170;-75
2022/04/22 03:31:22;;;;;;;11.83;10.73;;;;;;;13.26;67.06;94283.38;5074208;28;20655;-75
2022/04/22 03:33:48;;;;;;;13.67;11.97;;;;;;;13.08;68.86;94287.59;5082560;28;20408;-75
2022/04/22 03:36:13;;;;;;;13.07;11.70;;;;;;;12.81;68.96;94281.84;5075591;28;20182;-75
2022/04/22 03:38:40;;;;;;;13.87;12.33;;;;;;;12.93;69.04;94281.91;5065704;28;20177;-75
2022/04/22 03:41:05;;;;;;;13.40;12.10;;;;;;;13.03;68.65;94290.09;5064999;28;20202;-75
2022/04/22 03:43:31;;;;;;;17.97;13.00;;;;;;;13.09;68.66;94298.94;5066196;28;20830;-75
2022/04/22 03:45:56;;;;;;;14.43;12.93;;;;;;;12.89;69.35;94304.38;5083562;28;20231;-75
2022/04/22 03:48:22;;;;;;;13.13;11.73;;;;;;;12.82;69.51;94303.63;5063696;28;20182;-74
2022/04/22 03:50:47;;;;;;;13.17;11.63;;;;;;;12.95;69.43;94300.09;5065770;28;20263;-75
2022/04/22 03:53:13;;;;;;;15.90;12.33;;;;;;;12.89;69.32;94293.88;5088391;28;20169;-75
2022/04/22 03:55:40;;;;;;;12.60;11.43;;;;;;;13.09;68.84;94289.22;5073983;28;20211;-75
2022/04/22 03:58:12;;;;;;;15.37;12.77;;;;;;;13.25;68.93;94287.03;5091995;28;20173;-75
2022/04/22 04:00:49;;;;;;;12.83;11.53;;;;;;;13.12;68.52;94297.69;5087785;28;20515;-75
2022/04/22 04:03:17;;;;;;;13.33;11.93;;;;;;;13.02;69.60;94299.00;5074294;28;20458;-76
2022/04/22 04:05:48;;;;;;;14.20;12.70;;;;;;;13.00;69.91;94301.03;5073932;28;20427;-75
2022/04/22 04:08:14;;;;;;;14.20;12.77;;;;;;;13.29;69.08;94293.44;5073645;28;20423;-75
2022/04/22 04:16:08;;;;;;;13.23;11.93;;;;;;;13.71;66.85;94275.16;5106681;28;20495;-75
2022/04/22 04:18:35;;;;;;;13.50;11.90;;;;;;;13.53;67.67;94288.38;5075234;28;20420;-75
2022/04/22 04:23:49;;;;;;;13.77;12.47;;;;;;;13.05;69.17;94288.06;5110530;28;20515;-75
2022/04/22 04:26:16;;;;;;;16.23;12.00;;;;;;;13.18;69.13;94271.31;5108177;28;20488;-75
2022/04/22 04:28:44;;;;;;;13.00;11.63;;;;;;;13.50;67.94;94268.56;5091906;28;20411;-75
2022/04/22 04:31:11;;;;;;;13.37;12.00;;;;;;;13.20;68.93;94286.88;5092137;28;20436;-74
2022/04/22 04:33:38;;;;;;;20.23;12.43;;;;;;;13.09;68.69;94278.72;5073836;28;20498;-75
2022/04/22 04:36:04;;;;;;;12.80;11.60;;;;;;;13.14;68.67;94285.13;5073816;28;20458;-75
2022/04/22 04:38:31;;;;;;;14.27;12.53;;;;;;;12.67;70.33;94270.66;5057382;28;20447;-75
2022/04/22 04:40:57;;;;;;;14.87;13.30;;;;;;;12.38;71.68;94260.81;5063450;28;20432;-75
2022/04/22 04:43:23;;;;;;;14.37;12.67;;;;;;;13.29;69.19;94261.91;5055424;28;20452;-75
2022/04/22 04:45:50;;;;;;;13.20;11.80;;;;;;;13.05;68.93;94268.84;5062801;28;20515;-75
2022/04/22 04:48:16;;;;;;;18.63;12.90;;;;;;;13.27;67.65;94266.59;5073756;28;20182;-75
2022/04/22 04:50:45;;;;;;;19.03;13.20;;;;;;;13.23;67.72;94268.84;5071946;28;20860;-74
2022/04/22 04:53:12;;;;;;;14.50;13.20;;;;;;;13.19;67.73;94259.81;5091501;28;20475;-77
2022/04/22 04:55:38;;;;;;;16.57;13.60;;;;;;;13.16;68.15;94272.59;5072970;28;20815;-75
2022/04/22 04:58:04;;;;;;;13.50;12.20;;;;;;;13.43;66.73;94257.31;5073691;28;20491;-74
2022/04/22 05:00:30;;;;;;;17.60;13.80;;;;;;;13.47;67.03;94269.03;5068961;28;20428;-75
2022/04/22 05:02:55;;;;;;;15.03;13.53;;;;;;;13.56;66.47;94257.16;5087607;28;20456;-75
2022/04/22 05:05:21;;;;;;;14.60;13.10;;;;;;;13.63;66.05;94263.13;5070179;28;20175;-75
2022/04/22 05:07:58;;;;;;;17.13;15.13;;;;;;;13.60;66.37;94245.19;5076992;28;20223;-75
2022/04/22 05:10:27;;;;;;;15.57;14.07;;;;;;;13.81;64.92;94243.06;5070264;28;20419;-74
2022/04/22 05:12:53;;;;;;;16.57;14.63;;;;;;;13.58;65.24;94238.53;5070096;28;20427;-75
2022/04/22 05:15:22;;;;;;;15.77;14.30;;;;;;;13.52;65.27;94234.19;5071549;28;20447;-75
2022/04/22 05:17:48;;;;;;;16.77;15.00;;;;;;;13.48;65.69;94226.72;5072408;28;20412;-75
2022/04/22 05:20:15;;;;;;;17.23;14.33;;;;;;;13.54;65.63;94206.63;5088014;28;20487;-75
2022/04/22 05:22:41;;;;;;;15.60;14.10;;;;;;;13.70;64.80;94199.94;5087330;28;20198;-75
2022/04/22 05:25:09;;;;;;;16.80;14.60;;;;;;;13.52;65.47;94192.13;5078362;28;20480;-75
2022/04/22 05:27:35;;;;;;;17.63;15.73;;;;;;;13.62;66.29;94182.66;5067861;28;20428;-75
2022/04/22 05:32:47;;;;;;;16.73;14.60;;;;;;;13.56;65.77;94166.97;5087882;28;20465;-75
2022/04/22 05:35:15;;;;;;;16.17;14.70;;;;;;;13.75;65.23;94144.84;5069764;28;20518;-75
2022/04/22 05:37:49;;;;;;;15.90;14.27;;;;;;;13.29;67.37;94135.78;5076421;28;20417;-75
2022/04/22 05:40:17;;;;;;;16.23;14.53;;;;;;;13.62;65.83;94114.31;5069790;28;20436;-75
2022/04/22 05:42:43;;;;;;;15.53;12.90;;;;;;;13.76;65.12;94109.63;5069633;28;20460;-75
2022/04/22 05:45:10;;;;;;;15.57;13.70;;;;;;;13.64;64.58;94093.84;5069290;28;21024;-75
2022/04/22 05:47:36;;;;;;;13.70;11.57;;;;;;;13.33;65.32;94081.00;5087432;28;20427;-74
2022/04/22 05:50:04;;;;;;;11.53;10.33;;;;;;;13.45;64.59;94080.00;5069336;28;20420;-74
2022/04/22 05:52:32;;;;;;;12.93;11.63;;;;;;;13.71;63.91;94069.28;5069347;28;20420;-75
2022/04/22 05:57:43;;;;;;;13.33;10.70;;;;;;;13.30;63.75;94069.09;5087315;28;20411;-75
2022/04/22 06:00:12;;;;;;;16.33;13.67;;;;;;;14.07;61.54;94076.13;5087012;28;20442;-75
2022/04/22 06:02:39;;;;;;;11.53;10.43;;;;;;;13.89;61.51;94084.13;5069536;28;20460;-75
2022/04/22 06:05:04;;;;;;;11.73;10.50;;;;;;;14.06;60.19;94071.91;5086914;28;20419;-74
2022/04/22 06:07:30;;;;;;;11.30;10.23;;;;;;;14.06;61.08;94077.97;5086638;28;20507;-75
2022/04/22 06:12:40;;;;;;;9.93;8.93;;;;;;;13.72;62.02;94055.91;5088883;28;20181;-75
2022/04/22 06:15:06;;;;;;;11.27;10.13;;;;;;;13.47;61.90;94061.38;5073609;28;20440;-74
2022/04/22 06:17:32;;;;;;;10.13;9.13;;;;;;;13.79;61.16;94064.50;5057739;28;20182;-75
2022/04/22 06:19:58;;;;;;;10.57;9.60;;;;;;;13.78;60.25;94065.50;5053343;28;20428;-74
2022/04/22 06:22:25;;;;;;;10.70;9.67;;;;;;;13.96;60.40;94061.97;5086349;28;20448;-74
2022/04/22 06:24:51;;;;;;;9.80;8.90;;;;;;;14.02;60.44;94053.16;5064900;28;20433;-74
2022/04/22 06:27:27;;;;;;;11.47;9.97;;;;;;;14.37;59.55;94051.50;5065456;28;20425;-75
2022/04/22 06:29:54;;;;;;;10.33;9.43;;;;;;;14.56;58.73;94060.81;5068434;28;20183;-75
2022/04/22 06:32:22;;;;;;;11.10;9.83;;;;;;;14.96;57.96;94065.31;5086764;28;20443;-74
2022/04/22 06:34:52;;;;;;;11.30;10.20;;;;;;;14.91;57.37;94057.31;5086216;28;20417;-75
2022/04/22 06:37:17;;;;;;;12.43;11.13;;;;;;;15.37;57.52;94068.66;5078067;28;20428;-75
2022/04/22 06:48:17;;;;;;;13.77;12.37;;;;;;;14.59;60.51;94078.03;5024146;28;20465;-74
2022/04/22 06:50:44;;;;;;;13.77;12.33;;;;;;;14.55;61.96;94074.22;5024430;28;20431;-74
2022/04/22 06:53:11;;;;;;;15.50;13.90;;;;;;;14.83;61.35;94084.03;5035563;28;20197;-75
2022/04/22 06:55:38;;;;;;;15.17;13.67;;;;;;;14.78;61.90;94062.88;5086006;28;20420;-74
2022/04/22 06:58:09;;;;;;;14.60;13.00;;;;;;;15.14;61.12;94053.78;5086145;28;20408;-74
2022/04/22 07:00:34;;;;;;;13.03;11.67;;;;;;;15.31;58.72;94047.72;5067307;28;20428;-75
2022/04/22 07:03:00;;;;;;;13.53;12.13;;;;;;;15.69;57.63;94041.75;5052569;28;20522;-74
2022/04/22 07:05:26;;;;;;;13.60;12.30;;;;;;;16.12;56.66;94057.94;5065979;28;20178;-74
2022/04/22 07:07:52;;;;;;;14.17;12.70;;;;;;;16.27;56.06;94054.72;5065837;28;20412;-75
2022/04/22 07:10:18;;;;;;;12.33;11.23;;;;;;;16.19;56.56;94046.16;5065639;28;20182;-74
2022/04/22 07:12:44;;;;;;;11.43;10.43;;;;;;;16.48;54.17;94056.56;5076866;28;20166;-74
2022/04/22 07:15:10;;;;;;;11.93;10.83;;;;;;;15.67;55.96;94037.72;5067534;28;20424;-74
2022/04/22 07:17:40;;;;;;;11.73;10.53;;;;;;;16.17;55.07;94032.41;5079298;28;20660;-74
2022/04/22 07:20:10;;;;;;;16.67;9.13;;;;;;;16.18;54.12;94049.88;5064281;28;20456;-75
2022/04/22 07:22:45;;;;;;;11.90;10.70;;;;;;;16.28;54.74;94051.03;5077344;28;20502;-74
2022/04/22 07:25:12;;;;;;;10.60;9.67;;;;;;;16.65;53.38;94042.50;5067284;28;20430;-75
2022/04/22 07:27:39;;;;;;;10.70;9.70;;;;;;;16.91;53.92;94054.19;5067203;28;20475;-75
2022/04/22 07:30:08;;;;;;;12.20;10.03;;;;;;;17.44;52.03;94039.34;5072078;28;20479;-75
2022/04/22 07:32:37;;;;;;;11.97;10.73;;;;;;;17.68;51.63;94045.09;5085579;28;20396;-75
2022/04/22 07:35:12;;;;;;;11.50;10.50;;;;;;;17.82;51.50;94045.47;5067669;28;20420;-75
2022/04/22 07:37:48;;;;;;;11.43;10.33;;;;;;;18.10;50.26;94040.91;5085901;28;20457;-75
2022/04/22 07:40:15;;;;;;;10.03;8.60;;;;;;;16.97;53.52;94056.63;5067560;28;20420;-75
2022/04/22 07:46:46;;;;;;;11.53;10.37;;;;;;;17.31;52.83;94045.84;5066890;28;20476;-74
2022/04/22 07:48:15;;;;;;;6.03;5.43;;;;;;;16.50;53.20;94035.97;5082840;28;20434;-74
2022/04/22 07:50:42;;;;;;;6.83;6.20;;;;;;;16.32;53.10;94038.94;5067507;28;20417;-74
2022/04/22 07:53:08;;;;;;;8.30;7.13;;;;;;;16.61;53.17;94046.69;5067134;28;20408;-74
2022/04/22 07:55:33;;;;;;;8.97;6.87;;;;;;;16.79;52.10;94055.09;5067201;28;20420;-74
2022/04/22 07:57:59;;;;;;;6.80;6.10;;;;;;;16.24;53.76;94052.53;5085262;28;20898;-74
2022/04/22 08:00:25;;;;;;;9.90;3.60;;;;;;;16.43;52.56;94047.78;5085065;28;20174;-74
2022/04/22 08:02:50;;;;;;;6.00;5.60;;;;;;;17.00;52.42;94067.75;5084781;28;20192;-75
2022/04/22 08:05:16;;;;;;;9.27;7.37;;;;;;;17.28;51.62;94072.81;5085485;28;20416;-74
2022/04/22 08:07:42;;;;;;;8.90;6.50;;;;;;;18.03;49.62;94067.59;5067430;28;20549;-75
2022/04/22 08:10:08;;;;;;;9.27;7.23;;;;;;;17.70;49.60;94069.47;5068963;28;20186;-74
2022/04/22 08:12:33;;;;;;;7.40;6.70;;;;;;;18.17;48.79;94072.44;5064009;28;20229;-74
2022/04/22 08:15:01;;;;;;;9.43;7.60;;;;;;;18.66;47.58;94069.53;5065588;28;20170;-75
2022/04/22 08:17:27;;;;;;;6.93;6.40;;;;;;;18.75;46.83;94057.38;5073978;28;20181;-74
2022/04/22 08:19:52;;;;;;;8.60;6.37;;;;;;;18.36;49.24;94052.41;5105623;28;20501;-74
2022/04/22 08:22:18;;;;;;;7.47;6.87;;;;;;;19.16;47.28;94044.28;5093324;28;20197;-75
2022/04/22 08:24:43;;;;;;;6.50;6.00;;;;;;;19.47;45.77;94039.00;5085172;28;20162;-74
2022/04/22 08:27:11;;;;;;;7.93;7.17;;;;;;;19.22;46.23;94040.56;5084843;28;20178;-76
2022/04/22 08:29:37;;;;;;;7.80;7.07;;;;;;;19.01;47.58;94038.91;5084976;28;20169;-75
2022/04/22 08:32:04;;;;;;;10.63;7.83;;;;;;;19.43;46.16;94041.38;5084813;28;20496;-75
2022/04/22 08:34:29;;;;;;;6.40;5.80;;;;;;;19.53;45.59;94045.88;5091617;28;20399;-76
2022/04/22 08:36:55;;;;;;;7.83;7.10;;;;;;;20.40;44.31;94027.19;5086596;28;20419;-76
2022/04/22 08:39:21;;;;;;;7.67;6.17;;;;;;;20.18;44.28;94024.88;5070913;28;20193;-76
2022/04/22 08:41:48;;;;;;;6.83;6.23;;;;;;;20.40;43.69;94021.88;5066714;28;20171;-76
2022/04/22 08:44:14;;;;;;;7.50;6.80;;;;;;;20.94;42.97;94019.56;5064998;28;20194;-75
2022/04/22 08:52:17;;;;;;;8.00;6.10;;;;;;;20.99;42.83;94017.66;5074754;28;20474;-76
2022/04/22 08:54:46;;;;;;;5.90;5.30;;;;;;;21.55;41.20;94000.56;5070393;28;20478;-76
2022/04/22 08:57:13;;;;;;;8.70;5.00;;;;;;;21.55;41.08;94000.56;5072471;28;20423;-76
2022/04/22 08:59:38;;;;;;;7.23;6.03;;;;;;;22.32;40.08;94005.16;5086904;28;20416;-76
2022/04/22 09:02:04;;;;;;;6.87;6.30;;;;;;;21.27;41.47;93996.75;5070327;28;20443;-76
2022/04/22 09:04:30;;;;;;;6.10;5.50;;;;;;;21.23;41.24;93993.06;5070178;28;20207;-76
2022/04/22 09:06:56;;;;;;;6.50;5.90;;;;;;;20.15;43.55;93988.22;5070307;28;20249;-75
2022/04/22 09:09:25;;;;;;;6.30;5.80;;;;;;;20.21;43.85;93975.72;5080621;28;20412;-75
2022/04/22 09:11:54;;;;;;;8.33;7.57;;;;;;;20.51;43.16;93979.31;5069830;28;20423;-76
2022/04/22 09:14:23;;;;;;;6.60;5.40;;;;;;;20.66;42.79;93982.75;5085328;28;20430;-76
2022/04/22 09:16:54;;;;;;;6.13;5.40;;;;;;;20.41;42.60;93985.47;5089465;28;20554;-76
2022/04/22 09:19:20;;;;;;;5.67;5.17;;;;;;;20.98;41.49;93978.03;5064391;28;20769;-76
2022/04/22 09:21:56;;;;;;;6.27;5.67;;;;;;;21.47;40.57;93969.19;5072983;28;20405;-75
2022/04/22 09:24:24;;;;;;;10.53;5.90;;;;;;;21.87;39.30;93982.41;5088223;28;20204;-76
2022/04/22 09:27:06;;;;;;;5.30;4.80;;;;;;;21.79;39.09;93976.63;5083397;28;20431;-75
2022/04/22 09:29:54;;;;;;;6.37;5.70;;;;;;;21.64;39.45;93972.25;5066039;28;20475;-75
2022/04/22 09:32:40;;;;;;;6.27;4.40;;;;;;;22.25;38.39;93982.56;5069592;28;20408;-76
2022/04/22 09:35:15;;;;;;;6.10;5.60;;;;;;;22.45;38.71;93970.91;5083116;28;20496;-75
2022/04/22 09:43:38;;;;;;;7.60;6.00;;;;;;;23.27;37.23;93953.78;5087415;28;20474;-75
2022/04/22 09:46:04;;;;;;;5.90;5.33;;;;;;;23.00;37.41;93957.91;5059003;28;20420;-76
2022/04/22 09:48:41;;;;;;;5.63;5.13;;;;;;;22.75;37.92;93965.19;5079598;28;20451;-75
2022/04/22 09:51:21;;;;;;;8.57;5.60;;;;;;;22.78;37.65;93948.59;5055183;28;20500;-75
2022/04/22 09:53:48;;;;;;;5.97;5.33;;;;;;;23.11;36.62;93935.34;5083482;28;20503;-76
2022/04/22 09:56:16;;;;;;;5.80;5.00;;;;;;;22.63;37.36;93943.44;5049124;28;20416;-75
2022/04/22 09:58:42;;;;;;;8.30;5.33;;;;;;;22.66;37.25;93940.22;5047244;28;20410;-75
2022/04/22 10:01:48;;;;;;;5.67;5.17;;;;;;;23.19;37.49;93912.53;5048574;28;20421;-77
2022/04/22 10:04:20;;;;;;;6.67;5.43;;;;;;;23.49;36.08;93932.59;5068681;28;20194;-75
2022/04/22 10:06:47;;;;;;;5.43;4.93;;;;;;;23.54;36.37;93913.00;5048638;28;21089;-75
2022/04/22 10:09:16;;;;;;;7.20;6.20;;;;;;;23.51;37.62;93911.72;5066834;28;20435;-76
2022/04/22 10:11:44;;;;;;;10.50;6.00;;;;;;;23.77;36.90;93914.75;5048222;28;20421;-75
2022/04/22 10:14:11;;;;;;;5.90;5.40;;;;;;;23.82;37.34;93903.19;5049078;28;20445;-75
2022/04/22 10:16:37;;;;;;;8.37;5.50;;;;;;;23.36;37.04;93903.97;5060244;28;20507;-75
2022/04/22 10:19:04;;;;;;;8.93;5.90;;;;;;;23.49;37.29;93897.88;5048587;28;20512;-74
2022/04/22 10:21:30;;;;;;;6.33;5.30;;;;;;;23.04;38.61;93886.88;5048335;28;20427;-74
2022/04/22 10:23:56;;;;;;;6.93;5.87;;;;;;;23.33;38.14;93905.34;5048456;28;21037;-75
2022/04/22 10:26:22;;;;;;;6.20;5.60;;;;;;;23.26;38.48;93878.25;5048580;28;20421;-75
2022/04/22 10:28:52;;;;;;;6.70;6.00;;;;;;;23.28;38.12;93886.75;5048104;28;20194;-75
2022/04/22 10:31:18;;;;;;;9.43;6.10;;;;;;;23.13;38.64;93871.78;5048576;28;20432;-75
2022/04/22 10:33:49;;;;;;;6.60;6.00;;;;;;;23.22;38.31;93873.78;5048307;28;20413;-75
2022/04/22 10:36:19;;;;;;;6.87;5.60;;;;;;;22.31;39.96;93864.16;5066525;28;20512;-75
2022/04/22 10:38:46;;;;;;;8.73;5.80;;;;;;;22.66;39.52;93875.41;5066591;28;20394;-75
2022/04/22 10:41:24;;;;;;;6.57;5.50;;;;;;;23.14;38.69;93870.69;5048232;28;20429;-75
2022/04/22 10:49:50;;;;;;;5.70;5.20;;;;;;;24.15;36.38;93873.72;5069231;28;20430;-75
2022/04/22 10:52:19;;;;;;;6.47;4.50;;;;;;;24.32;35.56;93873.06;5067805;28;20450;-76
2022/04/22 10:54:53;;;;;;;9.77;4.90;;;;;;;24.45;34.82;93858.09;5077945;28;20535;-75
2022/04/22 10:57:19;;;;;;;5.67;5.20;;;;;;;24.02;36.11;93874.47;5066272;28;20421;-75
2022/04/22 10:59:45;;;;;;;7.93;4.83;;;;;;;24.22;35.75;93874.09;5068078;28;20481;-75
2022/04/22 11:02:30;;;;;;;6.97;5.83;;;;;;;24.44;35.66;93856.53;5085154;28;20174;-75
2022/04/22 11:05:20;;;;;;;5.93;5.43;;;;;;;24.00;35.73;93842.72;5067412;28;20443;-76
2022/04/22 11:07:57;;;;;;;7.07;4.90;;;;;;;23.02;37.34;93832.19;5067820;28;20411;-75
2022/04/22 11:10:58;;;;;;;9.07;5.10;;;;;;;22.85;37.94;93840.72;5068182;28;20787;-75
2022/04/22 11:13:41;;;;;;;6.00;5.40;;;;;;;23.45;36.80;93843.47;5083415;28;20415;-75
2022/04/22 11:16:26;;;;;;;6.13;4.60;;;;;;;23.07;37.24;93851.59;5088243;28;20573;-74
2022/04/22 11:19:17;;;;;;;9.53;6.07;;;;;;;23.94;36.11;93823.34;5068677;28;20416;-75
2022/04/22 11:21:44;;;;;;;5.47;4.97;;;;;;;24.60;34.96;93841.72;5085981;28;20412;-74
2022/04/22 11:24:20;;;;;;;11.37;10.20;;;;;;;24.27;35.50;93841.88;5086054;28;20440;-75
2022/04/22 11:26:50;;;;;;;7.63;5.10;;;;;;;24.53;35.20;93844.06;5067841;28;20504;-76
2022/04/22 11:29:16;;;;;;;5.07;4.73;;;;;;;24.77;34.26;93840.31;5068159;28;20408;-75
2022/04/22 11:31:56;;;;;;;7.90;4.90;;;;;;;24.66;34.98;93827.16;5085973;28;20420;-75
2022/04/22 11:34:39;;;;;;;6.67;4.87;;;;;;;24.95;34.42;93817.91;5067794;28;20402;-75
2022/04/22 11:37:16;;;;;;;8.67;5.67;;;;;;;24.98;34.57;93819.97;5067549;28;20419;-74
2022/04/22 11:39:46;;;;;;;7.87;7.07;;;;;;;25.76;33.81;93819.59;5085878;28;20408;-76
2022/04/22 11:42:11;;;;;;;6.30;5.70;;;;;;;26.63;32.25;93810.97;5085990;28;20724;-75
2022/04/22 11:44:40;;;;;;;8.40;6.17;;;;;;;26.64;31.51;93805.28;5086236;28;20414;-75
2022/04/22 11:47:43;;;;;;;9.20;5.40;;;;;;;27.13;30.91;93788.97;5068103;28;20621;-75
2022/04/22 11:50:19;;;;;;;9.87;4.70;;;;;;;26.40;31.86;93784.25;5066713;28;20408;-76
2022/04/22 11:52:52;;;;;;;6.50;4.50;;;;;;;26.92;31.77;93788.03;5067682;28;20521;-75
2022/04/22 11:55:17;;;;;;;6.07;5.00;;;;;;;27.17;30.31;93783.75;5085544;28;20550;-76
2022/04/22 11:57:43;;;;;;;6.73;4.93;;;;;;;27.68;29.92;93792.75;5085777;28;20526;-76
2022/04/22 12:05:46;;;;;;;5.27;4.80;;;;;;;28.56;28.51;93772.31;5085500;28;20767;-76
2022/04/22 12:08:13;;;;;;;5.13;4.73;;;;;;;27.79;29.74;93782.41;5085938;28;20409;-75
2022/04/22 12:10:46;;;;;;;5.77;4.63;;;;;;;27.22;29.85;93775.50;5079125;28;20400;-75
2022/04/22 12:13:13;;;;;;;8.50;4.20;;;;;;;27.63;29.20;93769.50;5088387;28;20505;-75
2022/04/22 12:15:42;;;;;;;5.53;5.00;;;;;;;27.48;29.59;93788.09;5089599;28;20435;-75
2022/04/22 12:18:08;;;;;;;4.57;4.20;;;;;;;27.14;29.73;93773.63;5071121;28;20427;-75
2022/04/22 12:20:34;;;;;;;6.80;5.00;;;;;;;27.67;29.00;93755.44;5071020;28;20412;-76
2022/04/22 12:23:00;;;;;;;4.90;4.33;;;;;;;27.73;29.39;93754.91;5088852;28;20208;-75
2022/04/22 12:25:25;;;;;;;8.47;5.00;;;;;;;28.58;28.54;93750.44;5089172;28;20166;-75
2022/04/22 12:28:08;;;;;;;8.33;4.57;;;;;;;28.60;28.09;93738.22;5088844;28;20419;-75
2022/04/22 12:30:40;;;;;;;6.53;4.33;;;;;;;28.88;27.79;93720.69;5071059;28;20155;-75
2022/04/22 12:33:08;;;;;;;6.43;4.00;;;;;;;29.68;26.60;93722.94;5071162;28;20446;-75